Time;durP1;ratioP1;P1;durP2;ratioP2;P2;SDS_P1;SDS_P2;PMS_P1;PMS_P2;Temp;Humidity;BMP_temperature;BMP_pressure;BME280_temperature;BME280_humidity;BME280_pressure;Samples;Min_cycle;Max_cycle;Signal;HPM_P1;HPM_P2
2022/09/13 00:00:50;;;;;;;6.65;3.30;;;15.50;82.90;;;;;;4970259;28;20802;-76
2022/09/13 00:03:16;;;;;;;7.47;2.95;;;15.50;83.30;;;;;;4964206;28;20101;-76
2022/09/13 00:05:42;;;;;;;6.38;3.15;;;15.50;83.30;;;;;;4972168;28;20045;-76
2022/09/13 00:08:08;;;;;;;6.13;3.17;;;15.50;82.80;;;;;;4961419;28;20098;-75
2022/09/13 00:10:36;;;;;;;5.68;2.95;;;15.60;82.30;;;;;;4969314;28;20430;-76
2022/09/13 00:13:02;;;;;;;5.50;2.70;;;15.70;81.90;;;;;;4969053;28;20023;-76
2022/09/13 00:15:28;;;;;;;5.20;2.80;;;15.80;81.20;;;;;;4966623;28;20034;-76
2022/09/13 00:17:54;;;;;;;5.75;3.10;;;15.80;81.20;;;;;;4955960;29;20027;-76
2022/09/13 00:20:19;;;;;;;5.70;2.80;;;15.90;81.30;;;;;;4966356;28;20077;-76
2022/09/13 00:22:45;;;;;;;4.32;2.58;;;15.90;81.10;;;;;;4967970;28;20113;-76
2022/09/13 00:25:10;;;;;;;6.38;2.80;;;16.00;80.90;;;;;;4967464;28;20462;-73
2022/09/13 00:27:37;;;;;;;5.15;2.90;;;16.00;80.90;;;;;;4972258;28;20035;-74
2022/09/13 00:30:10;;;;;;;4.75;2.85;;;16.00;80.20;;;;;;4973375;28;20030;-73
2022/09/13 00:32:36;;;;;;;4.07;2.30;;;16.10;80.10;;;;;;4966229;28;20106;-74
2022/09/13 00:35:03;;;;;;;5.50;3.10;;;16.20;79.70;;;;;;4966447;28;20182;-74
2022/09/13 00:37:29;;;;;;;8.82;3.08;;;16.20;79.20;;;;;;4964081;28;20483;-73
2022/09/13 00:39:54;;;;;;;7.75;2.80;;;16.30;79.30;;;;;;4971568;28;20034;-74
2022/09/13 00:42:27;;;;;;;4.63;2.50;;;16.30;79.00;;;;;;4969009;28;20137;-73
2022/09/13 00:44:56;;;;;;;9.32;3.38;;;16.30;79.60;;;;;;4963685;28;20023;-73
2022/09/13 00:47:45;;;;;;;4.82;2.97;;;16.30;79.10;;;;;;4970479;28;20085;-73
2022/09/13 00:50:30;;;;;;;5.97;2.78;;;16.30;79.30;;;;;;4966004;28;20023;-75
2022/09/13 00:52:59;;;;;;;4.97;2.80;;;16.30;79.60;;;;;;4962985;28;20062;-76
2022/09/13 00:55:35;;;;;;;5.30;3.33;;;16.20;80.40;;;;;;4971114;28;20039;-76
2022/09/13 00:58:05;;;;;;;6.15;3.75;;;16.10;81.80;;;;;;4971733;28;20038;-77
2022/09/13 01:00:31;;;;;;;8.40;3.45;;;15.90;82.60;;;;;;4970866;28;20027;-77
2022/09/13 01:03:04;;;;;;;6.05;3.83;;;15.70;84.80;;;;;;4963104;28;20043;-78
2022/09/13 01:05:34;;;;;;;8.15;3.90;;;15.50;86.70;;;;;;4956694;28;20044;-78
2022/09/13 01:08:00;;;;;;;7.55;4.30;;;15.20;88.70;;;;;;4963928;28;20126;-78
2022/09/13 01:10:27;;;;;;;8.70;4.15;;;15.00;89.70;;;;;;4964145;28;20153;-78
2022/09/13 01:13:04;;;;;;;8.98;5.00;;;14.90;91.10;;;;;;4960546;28;20028;-78
2022/09/13 01:15:29;;;;;;;10.13;5.15;;;14.70;91.90;;;;;;4963587;28;20030;-77
2022/09/13 01:17:55;;;;;;;12.98;4.97;;;14.60;92.60;;;;;;4960475;28;21255;-77
2022/09/13 01:20:35;;;;;;;13.32;5.38;;;14.60;93.20;;;;;;4964021;28;20031;-77
2022/09/13 01:23:33;;;;;;;8.35;5.35;;;14.50;93.50;;;;;;4962358;28;20362;-77
2022/09/13 01:26:29;;;;;;;8.88;5.72;;;14.50;93.30;;;;;;4931332;28;20031;-77
2022/09/13 01:29:12;;;;;;;9.73;5.88;;;14.50;93.70;;;;;;4973160;28;20042;-77
2022/09/13 01:32:25;;;;;;;9.82;5.75;;;14.50;94.10;;;;;;4969473;28;20035;-77
2022/09/13 01:35:12;;;;;;;9.73;6.00;;;14.40;94.20;;;;;;4935841;28;20070;-77
2022/09/13 01:38:00;;;;;;;9.95;6.07;;;14.40;94.50;;;;;;4960394;28;20030;-77
2022/09/13 01:40:31;;;;;;;10.93;6.35;;;14.40;94.70;;;;;;4965220;28;20027;-77
2022/09/13 01:43:13;;;;;;;12.50;6.78;;;14.40;94.90;;;;;;4962862;28;20058;-77
2022/09/13 01:45:56;;;;;;;10.13;6.38;;;14.50;95.10;;;;;;4967373;28;20371;-77
2022/09/13 01:48:28;;;;;;;10.63;6.32;;;14.40;95.20;;;;;;4965568;28;20027;-77
2022/09/13 01:50:56;;;;;;;10.20;6.50;;;14.40;95.30;;;;;;4969644;28;20046;-77
2022/09/13 01:53:55;;;;;;;9.63;6.65;;;14.30;95.30;;;;;;4957279;28;20448;-77
2022/09/13 01:56:38;;;;;;;10.63;6.80;;;14.40;95.30;;;;;;4970810;28;20109;-77
2022/09/13 01:59:10;;;;;;;10.52;7.28;;;14.40;95.40;;;;;;4956700;28;20024;-77
2022/09/13 02:01:43;;;;;;;11.93;7.00;;;14.40;95.50;;;;;;4966926;28;20030;-77
2022/09/13 02:04:15;;;;;;;12.02;7.35;;;14.30;95.50;;;;;;4963626;28;20420;-77
2022/09/13 02:07:10;;;;;;;11.88;7.03;;;14.30;95.50;;;;;;4970188;28;20117;-77
2022/09/13 02:09:41;;;;;;;12.00;7.40;;;14.30;95.50;;;;;;4967233;28;20152;-77
2022/09/13 02:12:17;;;;;;;12.40;7.00;;;14.30;95.60;;;;;;4965252;28;20027;-77
2022/09/13 02:14:45;;;;;;;13.82;7.15;;;14.30;95.60;;;;;;4955507;28;20042;-77
2022/09/13 02:17:19;;;;;;;10.60;7.28;;;14.30;95.60;;;;;;4963941;28;20090;-77
2022/09/13 02:19:56;;;;;;;14.00;8.18;;;14.30;95.60;;;;;;4956539;28;20038;-77
2022/09/13 02:22:27;;;;;;;9.50;7.57;;;14.30;95.70;;;;;;4969408;28;20097;-77
2022/09/13 02:24:58;;;;;;;12.98;8.80;;;14.30;95.80;;;;;;4972628;28;20023;-77
2022/09/13 02:27:27;;;;;;;14.30;9.15;;;14.30;95.90;;;;;;4972396;28;20474;-77
2022/09/13 02:30:00;;;;;;;19.05;9.52;;;14.40;95.90;;;;;;4973101;28;20029;-77
2022/09/13 02:32:43;;;;;;;12.80;8.85;;;14.40;96.00;;;;;;4961736;28;20521;-77
2022/09/13 02:35:20;;;;;;;11.38;8.48;;;14.40;96.00;;;;;;4972436;28;20054;-77
2022/09/13 02:37:59;;;;;;;14.18;9.13;;;14.40;96.10;;;;;;4969443;28;20084;-77
2022/09/13 02:40:29;;;;;;;17.17;9.48;;;14.40;96.10;;;;;;4955450;28;20038;-77
2022/09/13 02:43:04;;;;;;;16.05;9.57;;;14.40;96.20;;;;;;4961420;28;20031;-77
2022/09/13 02:45:40;;;;;;;15.02;9.52;;;14.40;96.30;;;;;;4975825;28;20034;-77
2022/09/13 02:48:15;;;;;;;15.63;9.38;;;14.40;96.40;;;;;;4976855;28;20033;-77
2022/09/13 02:51:06;;;;;;;15.20;9.15;;;14.40;96.40;;;;;;4976609;28;20071;-77
2022/09/13 02:53:42;;;;;;;15.82;9.40;;;14.50;96.40;;;;;;4971936;28;20027;-77
2022/09/13 02:56:28;;;;;;;14.13;9.52;;;14.50;96.40;;;;;;4972715;28;20132;-77
2022/09/13 02:59:19;;;;;;;15.32;9.63;;;14.50;96.40;;;;;;4967413;28;20471;-77
2022/09/13 03:01:51;;;;;;;14.63;10.15;;;14.50;96.40;;;;;;4954656;28;20047;-77
2022/09/13 03:04:17;;;;;;;15.85;10.02;;;14.60;96.50;;;;;;4965132;28;20027;-77
2022/09/13 03:06:42;;;;;;;16.10;11.30;;;14.60;96.60;;;;;;4974332;28;20478;-77
2022/09/13 03:09:08;;;;;;;15.73;10.60;;;14.50;96.60;;;;;;4975202;28;20035;-77
2022/09/13 03:11:53;;;;;;;16.58;10.10;;;14.50;96.70;;;;;;4973187;28;20050;-77
2022/09/13 03:14:26;;;;;;;15.95;10.30;;;14.50;96.60;;;;;;4974767;28;20027;-77
2022/09/13 03:17:24;;;;;;;16.45;9.90;;;14.50;96.70;;;;;;4970245;28;20043;-77
2022/09/13 03:20:23;;;;;;;16.10;10.60;;;14.50;96.70;;;;;;4968503;28;20043;-77
2022/09/13 03:23:12;;;;;;;18.15;10.10;;;14.50;96.80;;;;;;4954122;28;20529;-77
2022/09/13 03:25:55;;;;;;;14.48;10.32;;;14.50;96.90;;;;;;4948575;28;20054;-77
2022/09/13 03:28:52;;;;;;;18.73;10.75;;;14.50;97.00;;;;;;4960019;28;20125;-77
2022/09/13 03:31:31;;;;;;;16.58;10.82;;;14.50;97.00;;;;;;4970876;28;20066;-77
2022/09/13 03:34:05;;;;;;;19.20;11.15;;;14.50;97.00;;;;;;4963169;28;20370;-77
2022/09/13 03:36:37;;;;;;;17.63;11.57;;;14.50;97.10;;;;;;4967199;28;20630;-77
2022/09/13 03:39:20;;;;;;;16.55;10.63;;;14.50;97.10;;;;;;4975322;28;20015;-77
2022/09/13 03:41:51;;;;;;;19.15;11.18;;;14.50;97.20;;;;;;4972088;28;20033;-77
2022/09/13 03:44:20;;;;;;;18.60;11.37;;;14.50;97.30;;;;;;4964642;28;20031;-77
2022/09/13 03:46:50;;;;;;;16.17;11.38;;;14.50;97.30;;;;;;4968282;28;20035;-77
2022/09/13 03:49:19;;;;;;;19.60;12.05;;;14.60;97.30;;;;;;4972563;28;20126;-77
2022/09/13 03:51:48;;;;;;;18.88;11.15;;;14.60;97.30;;;;;;4970783;28;20415;-77
2022/09/13 03:54:18;;;;;;;21.13;11.30;;;14.60;97.30;;;;;;4972718;28;20023;-77
2022/09/13 03:57:10;;;;;;;17.33;11.13;;;14.60;97.30;;;;;;4976190;28;20038;-77
2022/09/13 03:59:37;;;;;;;17.67;11.30;;;14.60;97.30;;;;;;4975978;28;20370;-77
2022/09/13 04:02:05;;;;;;;18.52;11.45;;;14.60;97.30;;;;;;4962462;28;20031;-77
2022/09/13 04:04:31;;;;;;;16.55;11.65;;;14.60;97.30;;;;;;4973945;28;20108;-77
2022/09/13 04:07:00;;;;;;;18.10;11.95;;;14.60;97.30;;;;;;4965835;28;20030;-77
2022/09/13 04:09:26;;;;;;;17.42;11.25;;;14.60;97.30;;;;;;4956264;28;20073;-77
2022/09/13 04:11:51;;;;;;;18.63;11.60;;;14.60;97.30;;;;;;4963259;28;20070;-77
2022/09/13 04:14:17;;;;;;;19.30;11.95;;;14.60;97.30;;;;;;4956636;28;20030;-77
2022/09/13 04:16:42;;;;;;;18.00;11.77;;;14.60;97.20;;;;;;4968491;28;20031;-77
2022/09/13 04:19:07;;;;;;;19.38;12.35;;;14.60;97.30;;;;;;4975252;28;20073;-77
2022/09/13 04:21:33;;;;;;;15.30;10.75;;;14.60;97.20;;;;;;4971907;28;20399;-77
2022/09/13 04:23:58;;;;;;;20.15;11.48;;;14.60;97.20;;;;;;4975790;28;20041;-76
2022/09/13 04:26:24;;;;;;;19.10;11.75;;;14.60;97.20;;;;;;4975909;28;20437;-76
2022/09/13 04:28:52;;;;;;;18.17;12.02;;;14.60;97.20;;;;;;4967564;28;20043;-76
2022/09/13 04:31:17;;;;;;;17.85;12.05;;;14.60;97.20;;;;;;4955688;28;20073;-76
2022/09/13 04:33:43;;;;;;;17.50;11.02;;;14.70;97.20;;;;;;4975094;28;20793;-76
2022/09/13 04:36:08;;;;;;;18.83;11.77;;;14.70;97.10;;;;;;4968057;28;20035;-76
2022/09/13 04:38:33;;;;;;;19.40;12.57;;;14.70;97.10;;;;;;4961340;28;20030;-76
2022/09/13 04:40:59;;;;;;;16.27;11.30;;;14.70;97.00;;;;;;4961235;28;20102;-76
2022/09/13 04:43:24;;;;;;;18.30;12.00;;;14.70;97.10;;;;;;4959247;28;20514;-76
2022/09/13 04:45:50;;;;;;;17.88;11.75;;;14.70;97.00;;;;;;4973157;28;20110;-76
2022/09/13 04:48:16;;;;;;;20.65;12.85;;;14.70;97.00;;;;;;4963987;28;20121;-76
2022/09/13 04:50:41;;;;;;;20.40;12.38;;;14.70;97.00;;;;;;4965011;28;20019;-76
2022/09/13 04:53:07;;;;;;;23.48;13.32;;;14.70;97.00;;;;;;4970020;28;20041;-76
2022/09/13 04:55:33;;;;;;;18.75;12.90;;;14.70;97.10;;;;;;4969191;28;20034;-76
2022/09/13 04:57:58;;;;;;;23.55;13.25;;;14.70;97.10;;;;;;4972906;28;20105;-72
2022/09/13 05:00:24;;;;;;;21.75;13.90;;;14.70;97.10;;;;;;4967586;28;20565;-76
2022/09/13 05:02:54;;;;;;;27.67;14.50;;;14.80;97.30;;;;;;4968844;28;20082;-76
2022/09/13 05:05:20;;;;;;;21.08;14.30;;;14.80;97.30;;;;;;4973946;28;20034;-76
2022/09/13 05:07:49;;;;;;;24.80;15.27;;;14.80;97.40;;;;;;4967458;28;20035;-75
2022/09/13 05:10:14;;;;;;;21.85;14.65;;;14.80;97.40;;;;;;4965515;28;20050;-75
2022/09/13 05:12:40;;;;;;;25.30;15.25;;;14.80;97.50;;;;;;4966767;28;20058;-76
2022/09/13 05:15:06;;;;;;;23.17;15.45;;;14.80;97.50;;;;;;4961037;28;20483;-76
2022/09/13 05:17:31;;;;;;;27.67;16.42;;;14.90;97.60;;;;;;4959524;28;20027;-76
2022/09/13 05:19:57;;;;;;;25.02;16.77;;;14.80;97.70;;;;;;4969100;28;20033;-75
2022/09/13 05:22:22;;;;;;;28.35;16.73;;;14.80;97.80;;;;;;4964213;28;20058;-75
2022/09/13 05:24:48;;;;;;;30.50;17.55;;;14.90;97.90;;;;;;4961827;28;20039;-75
2022/09/13 05:27:13;;;;;;;29.05;17.38;;;14.90;97.90;;;;;;4967043;28;20035;-75
2022/09/13 05:29:39;;;;;;;32.92;19.05;;;14.90;97.90;;;;;;4960913;28;20399;-75
2022/09/13 05:32:04;;;;;;;31.60;17.48;;;14.90;98.10;;;;;;4966127;28;20034;-75
2022/09/13 05:34:30;;;;;;;36.70;19.20;;;14.90;98.10;;;;;;4957078;28;20027;-75
2022/09/13 05:36:55;;;;;;;29.15;18.23;;;14.90;98.10;;;;;;4967235;28;20034;-75
2022/09/13 05:39:21;;;;;;;33.20;19.52;;;15.00;98.20;;;;;;4970354;28;20447;-75
2022/09/13 05:41:47;;;;;;;33.97;20.83;;;15.00;98.20;;;;;;4965016;28;20050;-75
2022/09/13 05:44:12;;;;;;;36.15;19.92;;;15.00;98.20;;;;;;4969168;28;20050;-75
2022/09/13 05:46:38;;;;;;;38.67;21.38;;;15.00;98.30;;;;;;4971852;28;20046;-75
2022/09/13 05:49:03;;;;;;;41.35;21.77;;;15.00;98.30;;;;;;4964536;28;20516;-75
2022/09/13 05:51:29;;;;;;;33.35;19.63;;;15.00;98.30;;;;;;4964577;28;20037;-75
2022/09/13 05:53:56;;;;;;;44.42;21.70;;;15.00;98.30;;;;;;4959274;28;20062;-75
2022/09/13 05:56:24;;;;;;;36.45;21.25;;;15.10;98.40;;;;;;4966518;28;20035;-75
2022/09/13 05:58:51;;;;;;;37.17;20.83;;;15.00;98.40;;;;;;4957437;28;20361;-76
2022/09/13 06:01:20;;;;;;;40.33;22.00;;;15.10;98.50;;;;;;4962176;28;20437;-75
2022/09/13 06:03:56;;;;;;;38.30;21.50;;;15.10;98.50;;;;;;4964324;28;20023;-75
2022/09/13 06:06:23;;;;;;;43.75;22.45;;;15.10;98.50;;;;;;4968302;28;20023;-75
2022/09/13 06:08:54;;;;;;;41.15;22.10;;;15.20;98.50;;;;;;4968078;28;20043;-75
2022/09/13 06:11:20;;;;;;;41.45;22.88;;;15.20;98.60;;;;;;4961576;28;20023;-75
2022/09/13 06:13:46;;;;;;;40.10;22.65;;;15.30;98.60;;;;;;4968852;28;20031;-75
2022/09/13 06:16:12;;;;;;;43.58;22.77;;;15.30;98.70;;;;;;4973226;28;20026;-76
2022/09/13 06:18:38;;;;;;;40.50;22.25;;;15.30;98.60;;;;;;4966451;28;20073;-76
2022/09/13 06:21:16;;;;;;;49.38;23.27;;;15.40;98.60;;;;;;4964897;28;20326;-76
2022/09/13 06:23:43;;;;;;;40.53;23.15;;;15.50;98.70;;;;;;4965522;28;20026;-76
2022/09/13 06:26:11;;;;;;;44.70;21.55;;;15.50;98.70;;;;;;4968931;28;20035;-76
2022/09/13 06:28:37;;;;;;;41.03;22.50;;;15.50;98.60;;;;;;4971764;28;20062;-76
2022/09/13 06:31:09;;;;;;;36.90;21.85;;;15.50;98.70;;;;;;4970945;28;20023;-76
2022/09/13 06:33:36;;;;;;;41.45;24.00;;;15.50;98.60;;;;;;4967924;28;20356;-76
2022/09/13 06:36:05;;;;;;;44.63;22.30;;;15.50;98.70;;;;;;4959290;28;20030;-76
2022/09/13 06:38:30;;;;;;;46.42;25.10;;;15.50;98.70;;;;;;4965757;28;20034;-76
2022/09/13 06:41:10;;;;;;;42.58;25.20;;;15.50;98.70;;;;;;4962945;28;20073;-76
2022/09/13 06:43:37;;;;;;;44.35;24.85;;;15.50;98.70;;;;;;4964120;28;20034;-76
2022/09/13 06:46:08;;;;;;;45.80;25.95;;;15.50;98.70;;;;;;4967611;28;20027;-76
2022/09/13 06:48:37;;;;;;;48.40;25.27;;;15.50;98.70;;;;;;4970324;28;20027;-76
2022/09/13 06:51:11;;;;;;;43.60;26.27;;;15.60;98.80;;;;;;4969052;28;20035;-76
2022/09/13 06:53:38;;;;;;;46.72;26.50;;;15.60;98.80;;;;;;4970673;28;20023;-75
2022/09/13 06:56:12;;;;;;;44.45;25.27;;;15.70;98.80;;;;;;4962058;28;20074;-75
2022/09/13 06:58:40;;;;;;;46.60;27.08;;;15.80;98.90;;;;;;4970016;28;20537;-75
2022/09/13 07:01:10;;;;;;;46.55;25.90;;;15.80;98.80;;;;;;4967917;28;20034;-75
2022/09/13 07:03:38;;;;;;;41.90;26.15;;;15.80;98.80;;;;;;4968620;28;20077;-75
2022/09/13 07:06:10;;;;;;;43.63;27.80;;;15.90;98.80;;;;;;4967583;28;20034;-75
2022/09/13 07:08:36;;;;;;;46.13;28.13;;;15.90;98.80;;;;;;4970999;28;20027;-75
2022/09/13 07:11:02;;;;;;;49.25;27.55;;;16.00;98.80;;;;;;4972398;28;20027;-75
2022/09/13 07:13:27;;;;;;;47.80;27.17;;;16.00;98.80;;;;;;4971186;28;20089;-75
2022/09/13 07:15:53;;;;;;;48.95;27.30;;;16.00;98.60;;;;;;4953606;28;20110;-76
2022/09/13 07:18:18;;;;;;;41.45;27.80;;;16.10;98.60;;;;;;4953040;29;20031;-75
2022/09/13 07:20:44;;;;;;;40.67;26.33;;;16.00;98.60;;;;;;4958431;28;20511;-75
2022/09/13 07:23:09;;;;;;;41.17;26.02;;;16.10;98.60;;;;;;4958055;28;20031;-75
2022/09/13 07:25:35;;;;;;;36.22;25.73;;;16.10;98.50;;;;;;4957291;28;20348;-75
2022/09/13 07:28:00;;;;;;;42.13;27.10;;;16.20;98.50;;;;;;4972230;28;20022;-75
2022/09/13 07:30:26;;;;;;;42.78;26.52;;;16.30;98.40;;;;;;4973696;28;20061;-75
2022/09/13 07:32:51;;;;;;;41.95;24.67;;;16.40;98.30;;;;;;4956092;28;20530;-75
2022/09/13 07:35:17;;;;;;;35.08;24.23;;;16.50;98.30;;;;;;4967697;28;20042;-75
2022/09/13 07:37:45;;;;;;;36.58;24.63;;;16.50;98.20;;;;;;4971209;28;20023;-75
2022/09/13 07:40:11;;;;;;;38.22;23.58;;;16.70;98.10;;;;;;4975798;28;20022;-75
2022/09/13 07:42:36;;;;;;;31.73;21.80;;;16.80;98.00;;;;;;4974733;28;20031;-75
2022/09/13 07:45:02;;;;;;;29.40;21.05;;;16.70;97.60;;;;;;4969492;28;20542;-75
2022/09/13 07:47:28;;;;;;;31.63;21.33;;;16.70;97.60;;;;;;4971534;28;20032;-75
2022/09/13 07:49:53;;;;;;;35.58;21.70;;;16.80;97.50;;;;;;4955605;29;20031;-75
2022/09/13 07:52:19;;;;;;;33.40;21.15;;;16.70;97.20;;;;;;4961330;28;20030;-75
2022/09/13 07:54:45;;;;;;;27.00;19.65;;;16.70;97.30;;;;;;4966593;28;20522;-75
2022/09/13 07:57:11;;;;;;;26.50;19.35;;;16.70;97.10;;;;;;4975459;28;20069;-75
2022/09/13 07:59:37;;;;;;;29.10;20.45;;;16.60;97.20;;;;;;4975586;28;20027;-75
2022/09/13 08:02:03;;;;;;;30.45;20.60;;;16.70;97.30;;;;;;4975256;28;20050;-75
2022/09/13 08:04:28;;;;;;;31.38;21.20;;;16.60;97.30;;;;;;4973985;28;20066;-75
2022/09/13 08:06:54;;;;;;;30.67;19.92;;;16.60;97.50;;;;;;4960397;28;20030;-75
2022/09/13 08:09:20;;;;;;;32.17;20.02;;;16.80;97.70;;;;;;4975199;28;20085;-76
2022/09/13 08:11:51;;;;;;;27.92;18.42;;;17.00;97.50;;;;;;4969111;28;20114;-75
2022/09/13 08:14:18;;;;;;;28.75;19.23;;;17.00;97.30;;;;;;4963188;28;20121;-75
2022/09/13 08:16:44;;;;;;;27.35;17.30;;;17.00;97.30;;;;;;4968093;28;20023;-75
2022/09/13 08:19:12;;;;;;;27.88;17.90;;;17.00;97.00;;;;;;4970421;28;20035;-76
2022/09/13 08:21:39;;;;;;;25.10;17.77;;;17.00;97.00;;;;;;4971953;28;20030;-75
2022/09/13 08:24:07;;;;;;;25.30;17.15;;;17.00;97.10;;;;;;4970099;28;20049;-75
2022/09/13 08:26:34;;;;;;;25.02;17.40;;;16.90;97.20;;;;;;4970450;28;20494;-75
2022/09/13 08:29:02;;;;;;;31.10;17.67;;;16.80;97.20;;;;;;4975192;28;20031;-75
2022/09/13 08:31:28;;;;;;;28.15;18.17;;;16.90;97.30;;;;;;4970411;28;20046;-75
2022/09/13 08:33:54;;;;;;;27.17;18.73;;;16.90;97.40;;;;;;4970575;28;20031;-75
2022/09/13 08:36:22;;;;;;;31.27;18.90;;;16.90;97.40;;;;;;4954367;28;20476;-76
2022/09/13 08:38:51;;;;;;;31.58;17.80;;;17.00;97.40;;;;;;4968828;28;20061;-75
2022/09/13 08:41:38;;;;;;;26.73;16.58;;;17.00;97.40;;;;;;4970031;28;20467;-75
2022/09/13 08:44:13;;;;;;;25.17;15.18;;;17.00;97.30;;;;;;4971726;28;20058;-75
2022/09/13 08:46:43;;;;;;;22.73;14.63;;;17.00;97.10;;;;;;4972189;28;20482;-75
2022/09/13 08:49:20;;;;;;;22.10;12.20;;;17.10;97.20;;;;;;4956447;28;20399;-75
2022/09/13 08:51:50;;;;;;;14.15;8.25;;;17.00;96.90;;;;;;4972068;28;20455;-75
2022/09/13 08:54:17;;;;;;;13.90;6.50;;;17.00;95.80;;;;;;4971368;28;20023;-75
2022/09/13 08:57:02;;;;;;;12.10;5.47;;;17.00;95.90;;;;;;4963363;28;20031;-75
2022/09/13 08:59:50;;;;;;;11.13;5.97;;;17.10;95.50;;;;;;4963061;28;20038;-75
2022/09/13 09:02:35;;;;;;;16.90;5.65;;;17.40;95.40;;;;;;4966861;28;20023;-75
2022/09/13 09:05:20;;;;;;;10.75;5.30;;;17.70;94.90;;;;;;4965804;28;20045;-75
2022/09/13 09:08:08;;;;;;;13.38;5.00;;;17.80;94.20;;;;;;4969463;28;20027;-75
2022/09/13 09:10:52;;;;;;;14.65;5.03;;;18.10;93.50;;;;;;4963454;28;20392;-75
2022/09/13 09:13:36;;;;;;;11.30;3.88;;;18.30;92.10;;;;;;4972228;28;20034;-75
2022/09/13 09:16:15;;;;;;;6.72;3.03;;;18.40;91.50;;;;;;4960129;28;20023;-75
2022/09/13 09:18:43;;;;;;;8.32;2.67;;;18.40;90.10;;;;;;4973280;28;20031;-76
2022/09/13 09:21:15;;;;;;;9.93;2.58;;;18.50;89.60;;;;;;4959639;28;20030;-76
2022/09/13 09:23:50;;;;;;;8.73;1.95;;;18.60;89.80;;;;;;4972348;28;20030;-75
2022/09/13 09:26:18;;;;;;;5.22;1.27;;;18.50;87.90;;;;;;4972705;28;20026;-75
2022/09/13 09:28:59;;;;;;;5.50;1.15;;;18.30;86.30;;;;;;4973983;28;20019;-75
2022/09/13 09:31:53;;;;;;;9.35;1.23;;;18.30;86.40;;;;;;4972833;28;20575;-76
2022/09/13 09:34:41;;;;;;;7.40;1.35;;;18.20;86.30;;;;;;4970991;28;20477;-76
2022/09/13 09:37:21;;;;;;;9.77;1.73;;;18.30;86.40;;;;;;4964686;28;20170;-76
2022/09/13 09:39:48;;;;;;;7.90;1.80;;;18.30;86.20;;;;;;4967805;28;20034;-75
2022/09/13 09:42:18;;;;;;;7.45;1.50;;;18.40;85.80;;;;;;4973426;28;20062;-75
2022/09/13 09:44:56;;;;;;;8.98;1.80;;;18.60;86.20;;;;;;4969733;28;20101;-75
2022/09/13 09:47:24;;;;;;;7.75;1.63;;;18.70;85.90;;;;;;4972162;28;20030;-75
2022/09/13 09:50:11;;;;;;;9.48;1.80;;;18.80;85.50;;;;;;4971422;28;20471;-76
2022/09/13 09:53:02;;;;;;;12.00;1.50;;;18.80;85.60;;;;;;4970530;28;20101;-76
2022/09/13 09:55:27;;;;;;;11.27;2.17;;;18.60;85.80;;;;;;4962142;28;20375;-76
2022/09/13 09:58:07;;;;;;;7.57;1.60;;;18.40;87.20;;;;;;4974005;28;20042;-76
2022/09/13 10:00:53;;;;;;;7.40;1.17;;;18.20;87.40;;;;;;4970754;28;20041;-76
2022/09/13 10:03:24;;;;;;;6.22;1.45;;;18.40;87.70;;;;;;4971798;28;20031;-75
2022/09/13 10:05:49;;;;;;;7.18;2.22;;;18.30;86.20;;;;;;4971310;28;20035;-76
2022/09/13 10:08:52;;;;;;;6.20;1.33;;;18.50;86.20;;;;;;4964923;28;20027;-75
2022/09/13 10:11:21;;;;;;;5.65;1.60;;;18.30;84.10;;;;;;4933639;29;20496;-75
2022/09/13 10:14:01;;;;;;;7.60;1.17;;;18.40;85.10;;;;;;4951775;29;20519;-75
2022/09/13 10:16:29;;;;;;;9.65;1.00;;;18.50;84.90;;;;;;4934458;29;20028;-76
2022/09/13 10:19:23;;;;;;;3.35;0.95;;;18.80;82.10;;;;;;4950385;29;20038;-76
2022/09/13 10:22:09;;;;;;;5.63;0.63;;;19.00;82.20;;;;;;4932092;29;20016;-76
2022/09/13 10:24:34;;;;;;;7.07;1.08;;;19.90;81.10;;;;;;4935036;29;20029;-75
2022/09/13 10:27:03;;;;;;;6.85;1.27;;;20.00;78.20;;;;;;4946242;29;20061;-75
2022/09/13 10:29:29;;;;;;;5.60;1.08;;;20.20;76.20;;;;;;4952539;29;21099;-74
2022/09/13 10:32:02;;;;;;;9.70;1.08;;;20.00;76.80;;;;;;4952957;29;20471;-73
2022/09/13 10:34:33;;;;;;;6.28;0.82;;;20.10;76.60;;;;;;4951510;29;20456;-73
2022/09/13 10:37:18;;;;;;;7.40;0.85;;;19.90;75.80;;;;;;4950994;29;20114;-73
2022/09/13 10:40:05;;;;;;;9.18;0.70;;;19.60;69.80;;;;;;4953691;29;20444;-73
2022/09/13 10:42:31;;;;;;;3.15;0.75;;;19.20;69.10;;;;;;4947479;29;20035;-75
2022/09/13 10:45:02;;;;;;;3.47;0.57;;;19.00;70.10;;;;;;4953464;29;20031;-74
2022/09/13 10:47:32;;;;;;;;;;;19.10;69.60;;;;;;4947531;29;20101;-73
2022/09/13 10:50:00;;;;;;;6.18;0.88;;;19.50;68.70;;;;;;4952191;29;19925;-73
2022/09/13 10:52:30;;;;;;;5.13;0.52;;;20.00;67.60;;;;;;4950678;29;20031;-73
2022/09/13 10:55:24;;;;;;;4.53;0.93;;;20.40;67.50;;;;;;4941717;29;20032;-74
2022/09/13 10:58:02;;;;;;;6.95;0.68;;;20.70;67.40;;;;;;4943449;29;20031;-74
2022/09/13 11:00:52;;;;;;;8.02;0.93;;;21.00;66.20;;;;;;4951840;29;20032;-74
2022/09/13 11:03:34;;;;;;;4.97;0.70;;;21.30;64.20;;;;;;4953141;28;20531;-74
2022/09/13 11:06:32;;;;;;;4.90;0.65;;;21.30;62.10;;;;;;4955703;29;20490;-74
2022/09/13 11:09:15;;;;;;;5.13;0.50;;;21.50;60.40;;;;;;4956803;28;20449;-74
2022/09/13 11:12:02;;;;;;;2.95;0.70;;;21.70;61.20;;;;;;4951999;29;20027;-74
2022/09/13 11:14:47;;;;;;;2.13;0.50;;;21.90;60.20;;;;;;4953230;29;20031;-74
2022/09/13 11:17:24;;;;;;;6.00;0.93;;;21.70;58.30;;;;;;4937118;29;20030;-75
2022/09/13 11:20:26;;;;;;;4.75;0.70;;;21.80;57.60;;;;;;4936468;29;20028;-74
2022/09/13 11:23:35;;;;;;;4.07;0.50;;;21.60;56.20;;;;;;4883293;29;20386;-74
2022/09/13 11:26:06;;;;;;;3.28;0.50;;;21.70;57.40;;;;;;4954444;28;20530;-74
2022/09/13 11:29:04;;;;;;;6.88;1.15;;;21.80;57.90;;;;;;4953979;28;20098;-74
2022/09/13 11:31:42;;;;;;;4.05;0.82;;;22.20;57.30;;;;;;4954616;29;20031;-74
2022/09/13 11:34:36;;;;;;;4.57;0.80;;;22.50;55.40;;;;;;4926550;29;20082;-75
2022/09/13 11:37:41;;;;;;;4.43;0.75;;;22.80;53.10;;;;;;4905168;29;20038;-75
2022/09/13 11:40:32;;;;;;;4.50;0.90;;;23.00;53.90;;;;;;4856497;29;20041;-75
2022/09/13 11:43:03;;;;;;;3.15;0.60;;;23.30;55.10;;;;;;4948381;28;20098;-75
2022/09/13 11:45:45;;;;;;;7.20;0.90;;;23.00;55.80;;;;;;4951813;29;20078;-74
2022/09/13 11:48:37;;;;;;;4.78;0.70;;;22.10;57.00;;;;;;4953950;29;20761;-74
2022/09/13 11:51:24;;;;;;;6.50;0.93;;;21.50;57.80;;;;;;4953901;29;20247;-74
2022/09/13 11:54:08;;;;;;;2.78;0.70;;;21.10;59.60;;;;;;4952779;29;20076;-74
2022/09/13 11:56:42;;;;;;;5.75;0.93;;;20.70;61.10;;;;;;4951372;29;20032;-74
2022/09/13 11:59:15;;;;;;;7.72;0.93;;;20.60;62.60;;;;;;4944255;28;20016;-74
2022/09/13 12:01:44;;;;;;;10.52;1.10;;;20.40;62.70;;;;;;4947495;28;20023;-74
2022/09/13 12:04:32;;;;;;;4.25;0.88;;;20.50;62.90;;;;;;4955857;29;20480;-74
2022/09/13 12:07:08;;;;;;;4.13;0.68;;;21.00;62.90;;;;;;4953789;29;20039;-74
2022/09/13 12:09:45;;;;;;;7.32;0.90;;;22.10;59.20;;;;;;4946380;29;20058;-74
2022/09/13 12:12:12;;;;;;;4.10;0.90;;;22.70;55.90;;;;;;4942544;29;20126;-74
2022/09/13 12:14:50;;;;;;;2.58;0.68;;;22.80;54.80;;;;;;4941396;29;20040;-74
2022/09/13 12:17:38;;;;;;;8.52;0.98;;;22.10;55.30;;;;;;4946803;28;20027;-74
2022/09/13 12:20:12;;;;;;;2.72;0.52;;;21.60;57.30;;;;;;4944135;29;20039;-75
2022/09/13 12:22:38;;;;;;;4.90;0.75;;;21.10;58.60;;;;;;4947519;29;20332;-74
2022/09/13 12:25:18;;;;;;;5.40;1.20;;;21.50;57.90;;;;;;4944934;29;20380;-74
2022/09/13 12:28:02;;;;;;;5.40;0.95;;;22.10;57.60;;;;;;4944120;29;20078;-74
2022/09/13 12:30:40;;;;;;;6.72;0.93;;;21.80;58.30;;;;;;4942613;29;20050;-74
2022/09/13 12:33:06;;;;;;;3.20;0.43;;;22.20;57.30;;;;;;4945996;28;20034;-74
2022/09/13 12:35:37;;;;;;;3.65;0.63;;;22.90;55.80;;;;;;4929672;29;20035;-74
2022/09/13 12:38:18;;;;;;;4.22;0.82;;;22.50;55.90;;;;;;4942487;29;20404;-74
2022/09/13 12:41:02;;;;;;;;;;;22.80;54.20;;;;;;4942864;29;20074;-75
2022/09/13 12:44:01;;;;;;;6.03;0.80;;;22.40;54.50;;;;;;4948203;29;20061;-74
2022/09/13 12:46:53;;;;;;;6.97;1.05;;;22.60;55.10;;;;;;4943336;29;20027;-75
2022/09/13 12:49:44;;;;;;;3.55;0.73;;;23.30;53.00;;;;;;4941497;29;20082;-75
2022/09/13 12:52:39;;;;;;;4.75;0.80;;;23.40;52.30;;;;;;4939648;28;20033;-75
2022/09/13 12:55:24;;;;;;;3.28;0.70;;;23.10;51.40;;;;;;4937964;29;20042;-75
2022/09/13 12:57:56;;;;;;;5.18;0.82;;;22.20;53.20;;;;;;4950478;29;20023;-74
2022/09/13 13:00:32;;;;;;;3.05;0.63;;;22.60;53.40;;;;;;4955208;29;20035;-75
2022/09/13 13:03:10;;;;;;;3.20;0.77;;;23.20;51.70;;;;;;4953515;29;20359;-75
2022/09/13 13:05:48;;;;;;;3.80;0.70;;;23.40;50.70;;;;;;4954898;29;20379;-75
2022/09/13 13:08:24;;;;;;;6.93;1.20;;;24.00;49.60;;;;;;4951926;28;20039;-74